Time;durP1;ratioP1;P1;durP2;ratioP2;P2;SDS_P1;SDS_P2;PMS_P1;PMS_P2;Temp;Humidity;BMP_temperature;BMP_pressure;BME280_temperature;BME280_humidity;BME280_pressure;Samples;Min_cycle;Max_cycle;Signal;HPM_P1;HPM_P2
2022/11/23 00:00:24;;;;;;;6.93;2.63;;;-10.90;99.90;;;;;;5091884;28;20181;-75
2022/11/23 00:02:53;;;;;;;14.60;4.17;;;-11.50;99.90;;;;;;5085075;28;20188;-75
2022/11/23 00:05:19;;;;;;;7.63;2.27;;;-12.10;99.90;;;;;;5094346;28;20186;-74
2022/11/23 00:07:45;;;;;;;10.77;3.17;;;-11.00;99.90;;;;;;5095283;28;20497;-74
2022/11/23 00:10:11;;;;;;;6.73;2.00;;;-9.90;99.90;;;;;;5090830;28;20195;-77
2022/11/23 00:12:37;;;;;;;8.87;3.07;;;-8.70;99.90;;;;;;5087014;28;20234;-74
2022/11/23 00:15:04;;;;;;;6.77;1.83;;;-11.10;99.90;;;;;;5095935;28;20522;-77
2022/11/23 00:17:30;;;;;;;6.13;2.10;;;-10.50;99.90;;;;;;5086730;28;20321;-77
2022/11/23 00:19:56;;;;;;;8.27;2.93;;;-8.40;99.90;;;;;;5087014;28;20260;-77
2022/11/23 00:22:23;;;;;;;17.30;3.50;;;-9.20;99.90;;;;;;5083294;28;20180;-78
2022/11/23 00:24:49;;;;;;;9.87;2.20;;;-10.20;99.90;;;;;;5091357;28;20207;-77
2022/11/23 00:27:15;;;;;;;9.90;3.47;;;-10.20;99.90;;;;;;5092140;28;20178;-77
2022/11/23 00:29:40;;;;;;;14.57;2.73;;;-8.70;99.90;;;;;;5094211;28;20175;-74
2022/11/23 00:32:06;;;;;;;8.47;2.70;;;-9.30;99.90;;;;;;5095623;28;20178;-76
2022/11/23 00:34:32;;;;;;;11.13;2.87;;;-8.80;99.90;;;;;;5089641;28;20269;-78
2022/11/23 00:36:57;;;;;;;9.60;2.63;;;-7.80;99.90;;;;;;5091694;28;20309;-75
2022/11/23 00:39:23;;;;;;;5.93;2.30;;;-7.30;99.90;;;;;;5090552;28;20183;-75
2022/11/23 00:41:49;;;;;;;4.40;1.97;;;-10.80;99.90;;;;;;5090054;28;20190;-74
2022/11/23 00:44:15;;;;;;;19.60;2.70;;;-11.70;99.90;;;;;;5095773;28;20231;-75
2022/11/23 00:46:40;;;;;;;16.07;2.73;;;-11.10;99.90;;;;;;5095464;28;20466;-76
2022/11/23 00:49:06;;;;;;;5.43;2.37;;;-9.90;99.90;;;;;;5095447;28;20288;-76
2022/11/23 00:51:34;;;;;;;7.17;2.50;;;-13.60;99.90;;;;;;5095446;28;20181;-77
2022/11/23 00:54:02;;;;;;;15.77;3.53;;;-11.80;99.90;;;;;;5093397;28;20207;-76
2022/11/23 00:56:29;;;;;;;13.23;2.73;;;-10.60;99.90;;;;;;5093556;28;20185;-76
2022/11/23 00:58:56;;;;;;;5.93;1.93;;;-11.10;99.90;;;;;;5085569;28;20259;-75
2022/11/23 01:01:24;;;;;;;8.37;3.43;;;-11.30;99.90;;;;;;5084866;28;20197;-78
2022/11/23 01:03:53;;;;;;;8.77;4.00;;;-10.90;99.90;;;;;;5084525;28;20210;-76
2022/11/23 01:06:22;;;;;;;9.37;2.23;;;-11.50;99.90;;;;;;5089799;28;20239;-77
2022/11/23 01:08:49;;;;;;;6.67;3.00;;;-11.60;99.90;;;;;;5088926;28;20188;-76
2022/11/23 01:11:17;;;;;;;8.27;2.57;;;-9.70;99.90;;;;;;5095171;28;20211;-77
2022/11/23 01:13:43;;;;;;;14.90;3.37;;;-9.40;99.90;;;;;;5091241;28;20541;-75
2022/11/23 01:16:16;;;;;;;10.43;2.93;;;-10.10;99.90;;;;;;5094328;28;20208;-78
2022/11/23 01:18:42;;;;;;;8.50;3.30;;;-9.70;99.90;;;;;;5093492;28;20651;-77
2022/11/23 01:21:07;;;;;;;6.33;3.10;;;-10.90;99.90;;;;;;5094474;28;20211;-76
2022/11/23 01:23:33;;;;;;;11.23;3.00;;;-10.50;99.90;;;;;;5086777;28;20217;-76
2022/11/23 01:26:07;;;;;;;8.53;3.63;;;-10.30;99.90;;;;;;5096267;28;20198;-72
2022/11/23 01:28:33;;;;;;;11.07;3.73;;;-9.60;99.90;;;;;;5098816;28;20191;-73
2022/11/23 01:31:19;;;;;;;10.27;2.70;;;-9.80;99.90;;;;;;5091037;28;20182;-74
2022/11/23 01:33:46;;;;;;;9.73;2.67;;;-9.90;99.90;;;;;;5104372;28;20231;-78
2022/11/23 01:36:16;;;;;;;10.47;3.63;;;-8.60;99.90;;;;;;5080275;28;20180;-75
2022/11/23 01:38:42;;;;;;;10.30;3.47;;;-9.30;99.90;;;;;;5091477;28;20182;-76
2022/11/23 01:41:13;;;;;;;8.40;3.43;;;-10.20;99.90;;;;;;5098281;28;20588;-74
2022/11/23 01:43:38;;;;;;;16.50;3.63;;;-9.00;99.90;;;;;;5098362;28;20309;-74
2022/11/23 01:46:05;;;;;;;8.37;3.17;;;-10.30;99.90;;;;;;5091782;28;20270;-76
2022/11/23 01:48:52;;;;;;;4.37;2.50;;;-9.40;99.90;;;;;;5098299;28;20185;-77
2022/11/23 01:51:27;;;;;;;7.23;3.03;;;-9.10;99.90;;;;;;5089217;28;20187;-76
2022/11/23 01:53:56;;;;;;;9.17;2.73;;;-8.20;99.90;;;;;;5090452;28;20220;-75
2022/11/23 01:56:33;;;;;;;7.00;3.37;;;-9.70;99.90;;;;;;5097196;28;20175;-77
2022/11/23 01:59:03;;;;;;;7.77;2.60;;;-9.70;99.90;;;;;;5097753;28;21268;-75
2022/11/23 02:01:29;;;;;;;10.33;2.80;;;-9.60;99.90;;;;;;5093865;28;20713;-75
2022/11/23 02:03:57;;;;;;;12.57;3.70;;;-8.60;99.90;;;;;;5085209;28;20816;-76
2022/11/23 02:06:24;;;;;;;13.83;3.43;;;-11.60;99.90;;;;;;5097944;28;20181;-75
2022/11/23 02:08:52;;;;;;;13.20;3.93;;;-11.00;99.90;;;;;;5086886;28;20182;-78
2022/11/23 02:11:18;;;;;;;15.03;3.03;;;-11.40;99.90;;;;;;5089023;28;20232;-78
2022/11/23 02:13:46;;;;;;;12.50;3.40;;;-11.80;99.90;;;;;;5087803;28;20267;-75
2022/11/23 02:16:12;;;;;;;9.23;3.47;;;-10.50;99.90;;;;;;5089979;28;20199;-76
2022/11/23 02:18:44;;;;;;;12.43;3.20;;;-9.10;99.90;;;;;;5097528;28;20183;-74
2022/11/23 02:21:10;;;;;;;8.90;3.10;;;-9.10;99.90;;;;;;5091127;28;20178;-75
2022/11/23 02:24:19;;;;;;;15.47;3.37;;;-10.00;99.90;;;;;;5089036;28;20222;-77
2022/11/23 02:26:45;;;;;;;11.50;3.77;;;-9.70;99.90;;;;;;4996962;28;20274;-76
2022/11/23 02:29:17;;;;;;;6.97;2.33;;;-9.90;99.90;;;;;;5085146;28;20292;-77
2022/11/23 02:31:42;;;;;;;15.57;3.47;;;-9.90;99.90;;;;;;5090877;28;20649;-73
2022/11/23 02:34:08;;;;;;;8.67;2.93;;;-10.30;99.90;;;;;;5091341;28;20221;-74
2022/11/23 02:36:37;;;;;;;9.53;3.53;;;-9.60;99.90;;;;;;5096460;28;20179;-77
2022/11/23 02:39:17;;;;;;;17.87;4.90;;;-9.20;99.90;;;;;;5097861;28;20198;-76
2022/11/23 02:41:47;;;;;;;9.60;2.87;;;-8.30;99.90;;;;;;5097420;28;20186;-75
2022/11/23 02:44:21;;;;;;;8.83;2.97;;;-8.80;99.90;;;;;;5096815;28;20225;-75
2022/11/23 02:46:46;;;;;;;11.97;3.10;;;-8.10;99.90;;;;;;5096455;28;20202;-75
2022/11/23 02:49:12;;;;;;;14.47;3.43;;;-8.30;99.90;;;;;;5091289;28;20184;-75
2022/11/23 02:51:38;;;;;;;5.93;2.70;;;-11.10;99.90;;;;;;5087204;28;20184;-76
2022/11/23 02:54:04;;;;;;;9.93;3.23;;;-11.60;99.90;;;;;;5091752;28;20203;-76
2022/11/23 02:56:29;;;;;;;13.87;3.40;;;-11.60;99.90;;;;;;5091793;28;20261;-76
2022/11/23 02:58:55;;;;;;;9.47;2.93;;;-12.00;99.90;;;;;;5099988;28;20255;-75
2022/11/23 03:01:21;;;;;;;13.47;3.27;;;-12.20;99.90;;;;;;5102799;28;20216;-74
2022/11/23 03:03:46;;;;;;;10.03;3.00;;;-11.90;99.90;;;;;;5100702;28;20217;-75
2022/11/23 03:06:12;;;;;;;19.57;3.97;;;-11.90;99.90;;;;;;5092349;28;20266;-76
2022/11/23 03:08:38;;;;;;;12.87;2.97;;;-11.40;99.90;;;;;;5089145;28;20181;-74
2022/11/23 03:11:04;;;;;;;18.90;4.13;;;-10.80;99.90;;;;;;5092305;28;20218;-76
2022/11/23 03:13:30;;;;;;;23.97;4.27;;;-11.20;99.90;;;;;;5092128;28;20189;-76
2022/11/23 03:15:55;;;;;;;9.37;2.83;;;-11.10;99.90;;;;;;5094138;28;20694;-73
2022/11/23 03:18:22;;;;;;;14.60;3.30;;;-11.20;99.90;;;;;;5100330;28;20227;-77
2022/11/23 03:20:47;;;;;;;18.67;4.27;;;-8.80;99.90;;;;;;5093200;28;20589;-75
2022/11/23 03:23:13;;;;;;;10.80;3.03;;;-8.80;99.90;;;;;;5098171;28;20199;-75
2022/11/23 03:25:39;;;;;;;8.33;3.17;;;-8.50;99.90;;;;;;5078801;28;20176;-74
2022/11/23 03:28:04;;;;;;;23.83;4.80;;;-12.80;99.90;;;;;;5088488;28;20269;-74
2022/11/23 03:30:30;;;;;;;20.63;3.40;;;-12.30;99.90;;;;;;5095185;28;20181;-75
2022/11/23 03:32:56;;;;;;;7.57;1.80;;;-10.50;99.90;;;;;;5096938;28;20195;-77
2022/11/23 03:35:22;;;;;;;13.33;3.97;;;-9.50;99.90;;;;;;5091234;28;20180;-73
2022/11/23 03:37:48;;;;;;;19.50;4.73;;;-10.90;99.90;;;;;;5097228;28;20185;-74
2022/11/23 03:40:14;;;;;;;13.07;4.17;;;-10.40;99.90;;;;;;5092687;28;20194;-75
2022/11/23 03:42:40;;;;;;;9.53;3.83;;;-9.40;99.90;;;;;;5091670;28;20196;-78
2022/11/23 03:45:07;;;;;;;17.20;2.97;;;-9.60;99.90;;;;;;5097377;28;20271;-75
2022/11/23 03:47:33;;;;;;;9.80;2.43;;;-7.80;99.90;;;;;;5098069;28;20185;-77
2022/11/23 03:49:59;;;;;;;9.83;3.80;;;-8.50;99.90;;;;;;5093123;28;20267;-76
2022/11/23 03:52:25;;;;;;;6.43;3.87;;;-9.10;99.90;;;;;;5087749;28;20195;-76
2022/11/23 03:54:50;;;;;;;11.50;4.10;;;-11.50;99.90;;;;;;5096707;28;20573;-75
2022/11/23 03:57:16;;;;;;;16.53;5.60;;;-9.80;99.90;;;;;;5086240;28;20200;-76
2022/11/23 03:59:42;;;;;;;11.20;3.23;;;-8.90;99.90;;;;;;5082249;28;20188;-76
2022/11/23 04:02:07;;;;;;;8.30;3.97;;;-8.80;99.90;;;;;;5096455;28;20200;-73
2022/11/23 04:04:34;;;;;;;12.10;3.43;;;-9.30;99.90;;;;;;5093869;28;20203;-75
2022/11/23 04:07:01;;;;;;;17.47;4.03;;;-9.40;99.90;;;;;;5097145;28;20222;-74
2022/11/23 04:09:27;;;;;;;11.60;4.03;;;-11.10;99.90;;;;;;5095288;28;20576;-74
2022/11/23 04:11:53;;;;;;;10.47;2.70;;;-10.60;99.90;;;;;;5089919;28;20677;-76
2022/11/23 04:14:18;;;;;;;17.40;3.67;;;-10.50;99.90;;;;;;5096414;28;20242;-78
2022/11/23 04:16:44;;;;;;;10.47;2.30;;;-11.50;99.90;;;;;;5093772;28;20193;-78
2022/11/23 04:19:10;;;;;;;11.43;2.90;;;-10.10;99.90;;;;;;5090876;28;20268;-74
2022/11/23 04:21:36;;;;;;;12.53;3.40;;;-10.20;99.90;;;;;;5085811;28;20193;-74
2022/11/23 04:24:02;;;;;;;11.60;4.83;;;-11.10;99.90;;;;;;5097133;28;20209;-73
2022/11/23 04:26:27;;;;;;;16.83;4.20;;;-11.00;99.90;;;;;;5097101;28;20178;-75
2022/11/23 04:28:53;;;;;;;11.30;2.70;;;-9.90;99.90;;;;;;5093353;28;20196;-75
2022/11/23 04:31:19;;;;;;;15.07;4.27;;;-10.00;99.90;;;;;;5095603;28;20218;-77
2022/11/23 04:33:44;;;;;;;14.97;3.40;;;-8.90;99.90;;;;;;5096059;28;20193;-77
2022/11/23 04:36:10;;;;;;;10.17;3.10;;;-7.70;99.90;;;;;;5091241;28;20200;-77
2022/11/23 04:38:36;;;;;;;16.53;3.03;;;-9.80;99.90;;;;;;5090152;28;20499;-77
2022/11/23 04:41:02;;;;;;;8.13;2.67;;;-8.40;99.90;;;;;;5087874;28;20264;-76
2022/11/23 04:43:27;;;;;;;13.73;4.37;;;-8.80;99.90;;;;;;5091803;28;20248;-78
2022/11/23 04:45:53;;;;;;;18.67;4.70;;;-9.10;99.90;;;;;;5086417;28;20253;-76
2022/11/23 04:48:19;;;;;;;12.37;3.20;;;-9.00;99.90;;;;;;5099582;28;20187;-72
2022/11/23 04:50:44;;;;;;;12.47;3.27;;;-8.40;99.90;;;;;;5099703;28;20490;-74
2022/11/23 04:53:10;;;;;;;12.83;4.13;;;-8.30;99.90;;;;;;5082547;28;20208;-75
2022/11/23 04:55:36;;;;;;;15.77;3.60;;;-9.10;99.90;;;;;;5091190;28;20184;-72
2022/11/23 04:58:02;;;;;;;18.53;4.17;;;-9.30;99.90;;;;;;5092367;28;20183;-75
2022/11/23 05:00:28;;;;;;;8.57;2.70;;;-9.50;99.90;;;;;;5089653;28;20188;-76
2022/11/23 05:02:53;;;;;;;15.13;4.67;;;-9.70;99.90;;;;;;5094693;28;20196;-74
2022/11/23 05:05:19;;;;;;;23.23;4.80;;;-11.20;99.90;;;;;;5097797;28;20214;-74
2022/11/23 05:07:45;;;;;;;19.33;4.37;;;-9.30;99.90;;;;;;5095897;28;20586;-73
2022/11/23 05:10:11;;;;;;;15.90;4.00;;;-8.20;99.90;;;;;;5099329;28;20547;-75
2022/11/23 05:12:37;;;;;;;19.00;3.60;;;-8.10;99.90;;;;;;5088352;28;20181;-75
2022/11/23 05:15:04;;;;;;;10.10;2.80;;;-9.90;99.90;;;;;;5095623;28;20187;-74
2022/11/23 05:17:30;;;;;;;13.70;5.00;;;-10.00;99.90;;;;;;5095422;28;20190;-72
2022/11/23 05:19:55;;;;;;;7.47;2.50;;;-10.40;99.90;;;;;;5098768;28;20512;-76
2022/11/23 05:22:21;;;;;;;17.73;3.53;;;-9.50;99.90;;;;;;5097209;28;20538;-75
2022/11/23 05:24:47;;;;;;;16.80;3.37;;;-7.60;99.90;;;;;;5099369;28;20288;-76
2022/11/23 05:27:12;;;;;;;13.00;2.70;;;-10.00;99.90;;;;;;5101009;28;20619;-74
2022/11/23 05:29:38;;;;;;;11.07;3.40;;;-10.20;99.90;;;;;;5088694;28;20179;-76
2022/11/23 05:32:04;;;;;;;8.83;3.37;;;-10.90;99.90;;;;;;5096289;28;20213;-74
2022/11/23 05:34:30;;;;;;;19.63;3.83;;;-9.70;99.90;;;;;;5097432;28;20262;-75
2022/11/23 05:36:56;;;;;;;9.43;3.60;;;-9.60;99.90;;;;;;5094739;28;20171;-73
2022/11/23 05:39:22;;;;;;;8.63;3.23;;;-10.70;99.90;;;;;;5091110;28;20190;-75
2022/11/23 05:41:47;;;;;;;12.57;3.07;;;-9.80;99.90;;;;;;5108294;27;20186;-74
2022/11/23 05:44:13;;;;;;;10.20;3.13;;;-10.60;99.90;;;;;;5090586;28;20207;-77
2022/11/23 05:46:39;;;;;;;14.23;2.80;;;-10.50;99.90;;;;;;5089761;28;20184;-75
2022/11/23 05:49:05;;;;;;;10.97;3.30;;;-9.60;99.90;;;;;;5082543;28;20508;-73
2022/11/23 05:51:31;;;;;;;11.07;2.77;;;-10.10;99.90;;;;;;5093904;28;20171;-74
2022/11/23 05:53:57;;;;;;;18.47;3.50;;;-9.00;99.90;;;;;;5095952;28;20608;-75
2022/11/23 05:56:23;;;;;;;9.83;2.60;;;-8.20;99.90;;;;;;5091702;28;20190;-75
2022/11/23 05:58:49;;;;;;;8.90;2.77;;;-6.90;99.90;;;;;;5095543;28;20183;-75
2022/11/23 06:01:15;;;;;;;13.07;3.67;;;-7.50;99.90;;;;;;5091174;28;20281;-73
2022/11/23 06:03:40;;;;;;;11.90;2.60;;;-10.00;99.90;;;;;;5095008;28;20226;-73
2022/11/23 06:06:06;;;;;;;11.00;3.07;;;-9.80;99.90;;;;;;5092790;28;20185;-74
2022/11/23 06:08:33;;;;;;;14.83;4.30;;;-8.80;99.90;;;;;;5093795;28;20573;-72
2022/11/23 06:11:02;;;;;;;11.13;3.13;;;-8.40;99.90;;;;;;5097489;28;20234;-75
2022/11/23 06:13:28;;;;;;;8.63;3.03;;;-8.30;99.90;;;;;;5096458;28;20179;-77
2022/11/23 06:15:53;;;;;;;9.20;2.67;;;-6.30;99.90;;;;;;5099042;28;20193;-74
2022/11/23 06:18:19;;;;;;;11.67;3.77;;;-9.30;99.90;;;;;;5096763;28;20189;-74
2022/11/23 06:20:45;;;;;;;16.73;3.17;;;-8.80;99.90;;;;;;5087783;28;20191;-74
2022/11/23 06:23:10;;;;;;;23.77;3.37;;;-8.00;99.90;;;;;;5090777;28;20214;-74
2022/11/23 06:25:37;;;;;;;20.97;5.30;;;-7.50;99.90;;;;;;5088234;28;20178;-73
2022/11/23 06:28:04;;;;;;;12.50;3.70;;;-8.00;99.90;;;;;;5087950;28;20186;-73
2022/11/23 06:30:30;;;;;;;19.83;5.13;;;-9.20;99.90;;;;;;5094359;28;20183;-76
2022/11/23 06:32:56;;;;;;;11.53;3.53;;;-7.70;99.90;;;;;;5096029;28;20231;-72
2022/11/23 06:35:22;;;;;;;21.13;3.67;;;-7.10;99.90;;;;;;5086725;28;20586;-76
2022/11/23 06:37:49;;;;;;;7.83;3.27;;;-7.40;99.90;;;;;;5091484;28;20246;-75
2022/11/23 06:40:16;;;;;;;11.70;3.43;;;-9.30;99.90;;;;;;5090070;28;20215;-74
2022/11/23 06:42:41;;;;;;;25.17;4.63;;;-9.00;99.90;;;;;;5087165;28;20489;-74
2022/11/23 06:45:08;;;;;;;10.60;3.50;;;-10.60;99.90;;;;;;5092977;28;20225;-74
2022/11/23 06:47:34;;;;;;;8.20;2.90;;;-9.70;99.90;;;;;;5096255;28;20265;-73
2022/11/23 06:50:05;;;;;;;17.97;4.03;;;-9.40;99.90;;;;;;5089774;28;20307;-73
2022/11/23 06:52:31;;;;;;;16.80;3.80;;;-8.80;99.90;;;;;;5087132;28;20199;-74
2022/11/23 06:54:57;;;;;;;15.93;3.70;;;-8.90;99.90;;;;;;5079163;28;20435;-72
2022/11/23 06:57:23;;;;;;;22.13;4.03;;;-9.30;99.90;;;;;;5090771;28;20430;-74
2022/11/23 06:59:49;;;;;;;16.27;5.13;;;-10.10;99.90;;;;;;5096535;28;20174;-74
2022/11/23 07:02:14;;;;;;;10.67;3.77;;;-9.10;99.90;;;;;;5093554;28;20601;-73
2022/11/23 07:04:40;;;;;;;18.97;5.37;;;-10.90;99.90;;;;;;5087950;28;20203;-74
2022/11/23 07:07:09;;;;;;;17.07;3.63;;;-10.80;99.90;;;;;;5091034;28;20174;-72
2022/11/23 07:09:35;;;;;;;16.53;5.17;;;-10.30;99.90;;;;;;5088599;28;20182;-75
2022/11/23 07:12:00;;;;;;;29.90;4.93;;;-9.70;99.90;;;;;;5092552;28;20197;-75
2022/11/23 07:14:26;;;;;;;18.63;4.20;;;-10.30;99.90;;;;;;5087969;28;20183;-78
2022/11/23 07:16:52;;;;;;;16.73;3.30;;;-10.10;99.90;;;;;;5090376;28;20270;-72
2022/11/23 07:19:18;;;;;;;10.53;3.53;;;-10.30;99.90;;;;;;5087865;28;20189;-70
2022/11/23 07:21:44;;;;;;;12.60;4.43;;;-11.60;99.90;;;;;;5088726;28;20238;-71
2022/11/23 07:24:10;;;;;;;10.30;3.00;;;-9.50;99.90;;;;;;5087739;28;20205;-72
2022/11/23 07:26:36;;;;;;;9.70;3.20;;;-7.80;99.90;;;;;;5093013;28;20555;-72
2022/11/23 07:29:01;;;;;;;9.00;2.53;;;-9.10;99.90;;;;;;5091356;28;20178;-77
2022/11/23 07:31:27;;;;;;;11.87;3.83;;;-10.30;99.90;;;;;;5092491;28;20182;-71
2022/11/23 07:33:53;;;;;;;15.13;5.37;;;-10.40;99.90;;;;;;5095500;28;20612;-69
2022/11/23 07:36:19;;;;;;;14.90;3.50;;;-10.30;99.90;;;;;;5094343;28;20180;-73
2022/11/23 07:38:45;;;;;;;12.73;3.57;;;-9.80;99.90;;;;;;5095971;28;20503;-71
2022/11/23 07:41:10;;;;;;;10.80;3.83;;;-9.80;99.90;;;;;;5087157;28;20622;-74
2022/11/23 07:43:36;;;;;;;12.00;4.33;;;-9.40;99.90;;;;;;5083679;28;20229;-72
2022/11/23 07:46:02;;;;;;;11.00;4.50;;;-7.90;99.90;;;;;;5086159;28;20178;-71
2022/11/23 07:48:28;;;;;;;19.23;4.43;;;-7.70;99.90;;;;;;5090217;28;20175;-73
2022/11/23 07:50:54;;;;;;;13.00;3.23;;;-7.60;99.90;;;;;;5079741;28;20470;-73
2022/11/23 07:53:20;;;;;;;9.97;3.30;;;-7.50;99.90;;;;;;5089770;28;20231;-75
2022/11/23 07:55:46;;;;;;;18.77;3.97;;;-9.30;99.90;;;;;;5093846;28;20419;-75
2022/11/23 07:58:12;;;;;;;17.23;4.70;;;-9.20;99.90;;;;;;5083179;28;20769;-72
2022/11/23 08:00:38;;;;;;;15.57;3.00;;;-8.50;99.90;;;;;;5088207;28;20256;-72
2022/11/23 08:03:04;;;;;;;20.60;5.57;;;-8.50;99.90;;;;;;5091235;28;20694;-71
2022/11/23 08:05:34;;;;;;;12.93;4.33;;;-8.60;99.90;;;;;;5095599;28;20465;-72
2022/11/23 08:08:01;;;;;;;18.43;4.33;;;-9.10;99.90;;;;;;5095612;28;20425;-74
2022/11/23 08:10:29;;;;;;;10.93;4.90;;;-8.70;99.90;;;;;;5089007;28;20440;-72
2022/11/23 08:12:59;;;;;;;13.20;4.83;;;-7.20;99.90;;;;;;5091177;28;20430;-77
2022/11/23 08:15:27;;;;;;;14.40;4.37;;;-6.90;99.90;;;;;;5084391;28;20799;-75
2022/11/23 08:17:58;;;;;;;12.23;3.30;;;-6.60;99.90;;;;;;5095108;28;20438;-75
2022/11/23 08:20:25;;;;;;;7.83;2.83;;;-9.20;99.90;;;;;;5089865;28;20856;-75
2022/11/23 08:22:54;;;;;;;8.30;3.60;;;-12.60;99.90;;;;;;5095172;28;20217;-74
2022/11/23 08:25:22;;;;;;;7.07;3.57;;;-12.40;99.90;;;;;;5089807;28;20755;-74
2022/11/23 08:27:52;;;;;;;10.90;4.10;;;-12.20;99.90;;;;;;5098117;28;20450;-72
2022/11/23 08:30:18;;;;;;;14.63;3.23;;;-12.90;99.90;;;;;;5090393;28;20514;-73
2022/11/23 08:32:44;;;;;;;6.00;3.00;;;-12.60;99.90;;;;;;5088006;28;20289;-74
2022/11/23 08:35:10;;;;;;;7.37;3.10;;;-13.00;99.90;;;;;;5088189;28;20500;-76
2022/11/23 08:37:35;;;;;;;18.13;4.10;;;-13.70;99.90;;;;;;5095577;28;20182;-74
2022/11/23 08:40:03;;;;;;;14.23;2.93;;;-12.60;99.90;;;;;;5099234;28;20190;-75
2022/11/23 08:42:28;;;;;;;15.40;4.53;;;-11.60;99.90;;;;;;5091982;28;20217;-74
2022/11/23 08:44:54;;;;;;;14.80;3.90;;;-11.70;99.90;;;;;;5098298;28;20241;-74
2022/11/23 08:47:20;;;;;;;6.60;3.73;;;-12.10;99.90;;;;;;5092047;28;20174;-73
2022/11/23 08:49:45;;;;;;;14.00;3.93;;;-13.10;99.90;;;;;;5091671;28;20173;-74
2022/11/23 08:52:11;;;;;;;5.83;3.37;;;-12.60;99.90;;;;;;5091778;28;20200;-76
2022/11/23 08:54:37;;;;;;;8.67;3.50;;;-11.90;99.90;;;;;;5094589;28;20235;-73
2022/11/23 08:57:03;;;;;;;6.13;3.23;;;-13.40;99.90;;;;;;5099351;28;20482;-74
2022/11/23 08:59:29;;;;;;;5.77;3.23;;;-13.70;99.90;;;;;;5097853;28;20600;-73
2022/11/23 09:01:54;;;;;;;7.33;2.53;;;-11.80;99.90;;;;;;5098887;28;20559;-74
2022/11/23 09:04:20;;;;;;;6.67;3.27;;;-12.20;99.90;;;;;;5097630;28;20531;-75
2022/11/23 09:06:46;;;;;;;10.00;3.17;;;-12.60;99.90;;;;;;5087268;28;20586;-72
2022/11/23 09:09:12;;;;;;;6.00;2.40;;;-12.50;99.90;;;;;;5096152;28;20633;-73
2022/11/23 09:11:37;;;;;;;7.53;2.53;;;-12.40;99.90;;;;;;5093822;28;20241;-73
2022/11/23 09:14:03;;;;;;;6.83;3.30;;;-11.40;99.90;;;;;;5089887;28;20182;-73
2022/11/23 09:16:29;;;;;;;8.57;3.63;;;-11.80;99.90;;;;;;5096781;28;20175;-73
2022/11/23 09:18:55;;;;;;;8.70;3.67;;;-11.10;99.90;;;;;;5087117;28;20188;-73
2022/11/23 09:21:21;;;;;;;20.23;3.87;;;-10.80;99.90;;;;;;5092737;28;20242;-73
2022/11/23 09:23:47;;;;;;;10.93;4.03;;;-8.70;99.90;;;;;;5093479;28;20203;-72
2022/11/23 09:26:13;;;;;;;4.67;2.83;;;-10.80;99.90;;;;;;5097999;28;20170;-73
2022/11/23 09:28:38;;;;;;;4.63;2.67;;;-11.40;99.90;;;;;;5092500;28;20261;-77
2022/11/23 09:31:04;;;;;;;6.53;2.47;;;-12.20;99.90;;;;;;5094755;28;20526;-75
2022/11/23 09:33:30;;;;;;;9.23;3.20;;;-11.00;99.90;;;;;;5079178;28;20186;-75
2022/11/23 09:35:58;;;;;;;7.77;3.00;;;-11.60;99.90;;;;;;5089025;28;20226;-75
2022/11/23 09:38:23;;;;;;;11.77;2.60;;;-11.30;99.90;;;;;;5097630;28;20245;-75
2022/11/23 09:40:59;;;;;;;11.67;3.60;;;-10.70;99.90;;;;;;5098346;28;20229;-76
2022/11/23 09:44:04;;;;;;;6.37;2.70;;;-12.10;99.90;;;;;;5091761;28;20198;-75
2022/11/23 09:46:29;;;;;;;7.30;2.83;;;-12.90;99.90;;;;;;5087823;28;21099;-74
2022/11/23 09:49:15;;;;;;;4.23;2.33;;;-13.10;99.90;;;;;;5086967;28;20234;-76
2022/11/23 09:51:42;;;;;;;12.17;3.20;;;-14.00;99.90;;;;;;5095585;28;20263;-74
2022/11/23 09:54:28;;;;;;;9.97;2.97;;;-13.60;99.90;;;;;;5097805;28;20575;-76
2022/11/23 09:56:56;;;;;;;12.33;3.27;;;-11.00;99.90;;;;;;5090800;28;20203;-75
2022/11/23 09:59:43;;;;;;;9.33;2.87;;;-14.30;99.90;;;;;;5097598;28;20189;-74
2022/11/23 10:02:24;;;;;;;8.10;2.47;;;-13.70;99.90;;;;;;5085157;28;20215;-71
2022/11/23 10:04:55;;;;;;;5.73;2.20;;;-16.30;99.90;;;;;;5084262;28;20198;-72
2022/11/23 10:07:24;;;;;;;6.53;2.40;;;-15.60;99.90;;;;;;5094266;28;20218;-72
2022/11/23 10:10:37;;;;;;;8.63;2.40;;;-15.00;99.90;;;;;;5093466;28;20192;-72
2022/11/23 10:13:13;;;;;;;4.17;1.77;;;-12.50;99.90;;;;;;5030275;28;20630;-74
2022/11/23 10:16:04;;;;;;;6.53;2.60;;;-13.10;99.90;;;;;;5034075;28;20344;-74
2022/11/23 10:18:54;;;;;;;6.47;1.47;;;-13.40;99.90;;;;;;5080296;28;20197;-75
2022/11/23 10:21:52;;;;;;;9.37;2.47;;;-13.40;99.90;;;;;;5096449;28;20298;-74
2022/11/23 10:24:24;;;;;;;5.70;2.57;;;-12.50;99.90;;;;;;5092501;28;20196;-75
2022/11/23 10:26:50;;;;;;;2.77;1.50;;;-10.10;99.90;;;;;;5091949;28;20177;-76
2022/11/23 10:29:26;;;;;;;6.27;2.60;;;-10.80;99.90;;;;;;5096876;28;20495;-73
2022/11/23 10:31:52;;;;;;;7.70;1.80;;;-11.60;99.90;;;;;;5089794;28;20212;-74
2022/11/23 10:34:42;;;;;;;7.97;2.57;;;-9.20;99.90;;;;;;5096933;28;20185;-76
2022/11/23 10:37:12;;;;;;;6.37;1.93;;;-10.80;99.90;;;;;;5092765;28;20185;-75
2022/11/23 10:39:37;;;;;;;4.97;2.93;;;-11.00;99.90;;;;;;5096794;28;20171;-73
2022/11/23 10:42:31;;;;;;;4.23;1.83;;;-9.70;99.90;;;;;;5090863;28;20186;-75
2022/11/23 10:44:59;;;;;;;6.03;1.97;;;-10.80;99.90;;;;;;5072379;28;20307;-75
2022/11/23 10:47:39;;;;;;;8.10;2.20;;;-12.10;99.90;;;;;;5087995;28;20165;-77
2022/11/23 10:50:39;;;;;;;7.10;2.37;;;-11.50;99.90;;;;;;5091840;28;20181;-73
2022/11/23 10:53:07;;;;;;;4.30;2.17;;;-10.80;99.90;;;;;;5055576;28;20220;-75
2022/11/23 10:55:46;;;;;;;5.33;1.77;;;-12.80;99.90;;;;;;5091841;28;20547;-74
2022/11/23 10:58:35;;;;;;;4.17;2.23;;;-12.70;99.90;;;;;;5093190;28;20268;-73
2022/11/23 11:01:11;;;;;;;3.90;1.87;;;-14.90;99.90;;;;;;5090349;28;20221;-75
2022/11/23 11:03:36;;;;;;;9.53;3.77;;;-14.10;99.90;;;;;;5086999;28;20199;-76
2022/11/23 11:06:02;;;;;;;3.67;1.80;;;-14.70;99.90;;;;;;5091966;28;20178;-75
2022/11/23 11:08:31;;;;;;;7.17;1.90;;;-14.20;99.90;;;;;;5096567;28;20845;-76
2022/11/23 11:11:21;;;;;;;3.63;1.50;;;-13.60;99.90;;;;;;5091631;28;20174;-75
2022/11/23 11:13:47;;;;;;;8.50;2.37;;;-12.80;99.90;;;;;;5086628;28;20258;-75
2022/11/23 11:16:30;;;;;;;8.70;2.50;;;-12.60;99.90;;;;;;5091938;28;20187;-72
2022/11/23 11:18:56;;;;;;;5.20;2.03;;;-11.60;99.90;;;;;;5092265;28;20198;-75
2022/11/23 11:21:33;;;;;;;7.10;2.13;;;-12.50;99.90;;;;;;5094239;28;20186;-74
2022/11/23 11:24:02;;;;;;;4.57;2.40;;;-15.10;99.90;;;;;;5091295;28;20202;-78
2022/11/23 11:26:31;;;;;;;7.63;2.23;;;-14.20;99.90;;;;;;5095029;28;20182;-79
2022/11/23 11:29:02;;;;;;;8.73;2.50;;;-15.20;99.90;;;;;;5089738;28;20575;-77
2022/11/23 11:31:46;;;;;;;10.93;2.53;;;-14.00;99.90;;;;;;5094467;28;20241;-72
2022/11/23 11:34:16;;;;;;;6.53;1.97;;;-16.40;99.90;;;;;;5087024;28;20182;-77
2022/11/23 11:37:17;;;;;;;3.27;1.53;;;-11.30;99.90;;;;;;5085055;28;20174;-77
2022/11/23 11:39:52;;;;;;;7.67;2.07;;;-11.90;99.90;;;;;;5047468;28;20650;-77
2022/11/23 11:42:29;;;;;;;4.80;1.63;;;-12.80;99.90;;;;;;5084046;28;20185;-76
2022/11/23 11:44:57;;;;;;;16.57;2.20;;;-15.70;99.90;;;;;;5077712;28;20218;-73
2022/11/23 11:47:42;;;;;;;4.43;2.37;;;-15.60;99.90;;;;;;5092703;28;20182;-76
2022/11/23 11:50:24;;;;;;;1.47;1.00;;;-16.50;99.90;;;;;;5092202;28;20213;-76
2022/11/23 11:53:04;;;;;;;4.47;1.77;;;-17.20;99.90;;;;;;5094222;28;20244;-75
2022/11/23 11:55:54;;;;;;;10.13;1.70;;;-16.20;99.90;;;;;;5094651;28;20178;-75
2022/11/23 11:58:24;;;;;;;3.97;1.97;;;-16.30;99.90;;;;;;5091174;28;20186;-72
2022/11/23 12:00:59;;;;;;;3.10;1.37;;;-16.30;99.90;;;;;;5094400;28;20205;-75
2022/11/23 12:03:41;;;;;;;3.13;1.60;;;-10.90;99.90;;;;;;5091441;28;20660;-75
2022/11/23 12:06:28;;;;;;;2.33;1.27;;;-11.90;99.90;;;;;;5091441;28;20182;-77
2022/11/23 12:09:16;;;;;;;5.97;1.63;;;-11.40;99.90;;;;;;5095651;28;20171;-77
2022/11/23 12:11:42;;;;;;;1.63;1.30;;;-10.90;99.90;;;;;;5095483;28;20198;-75
2022/11/23 12:14:12;;;;;;;4.30;1.83;;;-10.30;99.90;;;;;;5094157;28;20474;-73
2022/11/23 12:16:57;;;;;;;6.27;1.40;;;-9.60;99.90;;;;;;5091205;28;20314;-71
2022/11/23 12:19:30;;;;;;;4.00;1.63;;;-8.00;99.90;;;;;;5090984;28;20174;-72
2022/11/23 12:22:10;;;;;;;3.03;1.80;;;-9.50;99.90;;;;;;5087804;28;20194;-73
2022/11/23 12:25:01;;;;;;;4.30;1.30;;;-11.20;99.90;;;;;;5083706;28;20506;-76
2022/11/23 12:27:26;;;;;;;5.47;1.40;;;-9.80;99.90;;;;;;5088193;28;20174;-72
2022/11/23 12:29:55;;;;;;;2.40;1.30;;;-12.60;99.90;;;;;;5091641;28;20654;-71
2022/11/23 12:32:44;;;;;;;1.87;1.00;;;-13.20;99.90;;;;;;5081336;28;20597;-73
2022/11/23 12:35:19;;;;;;;4.23;1.50;;;-11.80;99.90;;;;;;5093637;28;20186;-74
2022/11/23 12:38:13;;;;;;;4.00;1.47;;;-11.80;99.90;;;;;;5090542;28;20601;-76
2022/11/23 12:40:47;;;;;;;4.47;1.40;;;-10.50;99.90;;;;;;5090343;28;20305;-72
2022/11/23 12:43:26;;;;;;;9.93;2.43;;;-11.50;99.90;;;;;;5089890;28;20181;-72
2022/11/23 12:46:22;;;;;;;10.67;2.73;;;-13.40;99.90;;;;;;5086281;28;20189;-72